sensor_id;sensor_type;location;lat;lon;timestamp;P1;durP1;ratioP1;P2;durP2;ratioP2
18857;SDS011;9558;50.178;8.370;2023-07-09T00:00:11;3.25;;;1.42;;
18857;SDS011;9558;50.178;8.370;2023-07-09T00:03:00;6.05;;;1.63;;
18857;SDS011;9558;50.178;8.370;2023-07-09T00:05:49;2.30;;;1.70;;
18857;SDS011;9558;50.178;8.370;2023-07-09T00:08:36;3.22;;;1.40;;
18857;SDS011;9558;50.178;8.370;2023-07-09T00:11:29;2.30;;;1.58;;
18857;SDS011;9558;50.178;8.370;2023-07-09T00:14:16;4.00;;;1.42;;
18857;SDS011;9558;50.178;8.370;2023-07-09T00:17:04;3.53;;;1.83;;
18857;SDS011;9558;50.178;8.370;2023-07-09T00:19:54;3.47;;;1.80;;
18857;SDS011;9558;50.178;8.370;2023-07-09T00:22:42;2.17;;;1.38;;
18857;SDS011;9558;50.178;8.370;2023-07-09T00:28:21;3.45;;;1.60;;
18857;SDS011;9558;50.178;8.370;2023-07-09T00:31:08;1.92;;;1.45;;
18857;SDS011;9558;50.178;8.370;2023-07-09T00:33:58;3.22;;;1.60;;
18857;SDS011;9558;50.178;8.370;2023-07-09T00:36:45;2.38;;;1.70;;
18857;SDS011;9558;50.178;8.370;2023-07-09T00:39:33;3.30;;;1.55;;
18857;SDS011;9558;50.178;8.370;2023-07-09T00:42:21;2.80;;;1.50;;
18857;SDS011;9558;50.178;8.370;2023-07-09T00:45:14;2.28;;;1.40;;
18857;SDS011;9558;50.178;8.370;2023-07-09T00:48:05;2.20;;;1.70;;
18857;SDS011;9558;50.178;8.370;2023-07-09T00:50:55;3.88;;;1.63;;
18857;SDS011;9558;50.178;8.370;2023-07-09T00:53:42;3.03;;;1.65;;
18857;SDS011;9558;50.178;8.370;2023-07-09T00:56:33;1.75;;;1.40;;
18857;SDS011;9558;50.178;8.370;2023-07-09T00:59:24;5.78;;;1.50;;
18857;SDS011;9558;50.178;8.370;2023-07-09T01:02:15;3.17;;;1.38;;
18857;SDS011;9558;50.178;8.370;2023-07-09T01:05:03;9.73;;;1.73;;
18857;SDS011;9558;50.178;8.370;2023-07-09T01:07:51;2.28;;;1.48;;
18857;SDS011;9558;50.178;8.370;2023-07-09T01:10:38;4.70;;;1.67;;
18857;SDS011;9558;50.178;8.370;2023-07-09T01:13:27;2.40;;;1.58;;
18857;SDS011;9558;50.178;8.370;2023-07-09T01:16:17;2.53;;;1.70;;
18857;SDS011;9558;50.178;8.370;2023-07-09T01:19:05;5.38;;;1.70;;
18857;SDS011;9558;50.178;8.370;2023-07-09T01:21:54;4.40;;;1.80;;
18857;SDS011;9558;50.178;8.370;2023-07-09T01:24:48;6.03;;;2.20;;
18857;SDS011;9558;50.178;8.370;2023-07-09T01:27:37;2.30;;;1.42;;
18857;SDS011;9558;50.178;8.370;2023-07-09T01:30:26;4.38;;;1.85;;
18857;SDS011;9558;50.178;8.370;2023-07-09T01:33:16;2.85;;;1.67;;
18857;SDS011;9558;50.178;8.370;2023-07-09T01:36:03;4.53;;;1.83;;
18857;SDS011;9558;50.178;8.370;2023-07-09T01:38:53;3.17;;;1.30;;
18857;SDS011;9558;50.178;8.370;2023-07-09T01:41:42;3.47;;;1.50;;
18857;SDS011;9558;50.178;8.370;2023-07-09T01:44:31;2.25;;;1.48;;
18857;SDS011;9558;50.178;8.370;2023-07-09T01:47:18;4.30;;;1.77;;
18857;SDS011;9558;50.178;8.370;2023-07-09T01:50:06;1.98;;;1.50;;
18857;SDS011;9558;50.178;8.370;2023-07-09T01:52:55;2.42;;;1.40;;
18857;SDS011;9558;50.178;8.370;2023-07-09T01:55:44;2.50;;;1.70;;
18857;SDS011;9558;50.178;8.370;2023-07-09T01:58:30;5.35;;;1.60;;
18857;SDS011;9558;50.178;8.370;2023-07-09T02:01:17;3.42;;;1.75;;
18857;SDS011;9558;50.178;8.370;2023-07-09T02:04:05;6.63;;;1.73;;
18857;SDS011;9558;50.178;8.370;2023-07-09T02:06:52;3.05;;;1.67;;
18857;SDS011;9558;50.178;8.370;2023-07-09T02:09:39;3.40;;;1.70;;
18857;SDS011;9558;50.178;8.370;2023-07-09T02:12:27;2.67;;;1.70;;
18857;SDS011;9558;50.178;8.370;2023-07-09T02:15:14;2.53;;;1.95;;
18857;SDS011;9558;50.178;8.370;2023-07-09T02:18:02;4.85;;;1.85;;
18857;SDS011;9558;50.178;8.370;2023-07-09T02:20:49;2.92;;;1.63;;
18857;SDS011;9558;50.178;8.370;2023-07-09T02:23:35;3.90;;;1.60;;
18857;SDS011;9558;50.178;8.370;2023-07-09T02:26:22;2.83;;;1.48;;
18857;SDS011;9558;50.178;8.370;2023-07-09T02:29:10;3.90;;;1.90;;
18857;SDS011;9558;50.178;8.370;2023-07-09T02:31:57;3.00;;;1.80;;
18857;SDS011;9558;50.178;8.370;2023-07-09T02:34:46;2.83;;;1.83;;
18857;SDS011;9558;50.178;8.370;2023-07-09T02:37:34;2.38;;;1.60;;
18857;SDS011;9558;50.178;8.370;2023-07-09T02:40:21;2.80;;;1.58;;
18857;SDS011;9558;50.178;8.370;2023-07-09T02:43:08;5.72;;;1.65;;
18857;SDS011;9558;50.178;8.370;2023-07-09T02:45:56;2.17;;;1.60;;
18857;SDS011;9558;50.178;8.370;2023-07-09T02:48:43;3.17;;;1.83;;
18857;SDS011;9558;50.178;8.370;2023-07-09T02:51:30;3.28;;;1.60;;
18857;SDS011;9558;50.178;8.370;2023-07-09T02:54:17;3.38;;;1.88;;
18857;SDS011;9558;50.178;8.370;2023-07-09T02:57:04;2.33;;;1.55;;
18857;SDS011;9558;50.178;8.370;2023-07-09T02:59:51;4.57;;;1.60;;
18857;SDS011;9558;50.178;8.370;2023-07-09T03:02:39;3.20;;;1.55;;
18857;SDS011;9558;50.178;8.370;2023-07-09T03:05:26;2.63;;;1.70;;
18857;SDS011;9558;50.178;8.370;2023-07-09T03:08:13;2.70;;;1.65;;
18857;SDS011;9558;50.178;8.370;2023-07-09T03:11:07;2.50;;;1.45;;
18857;SDS011;9558;50.178;8.370;2023-07-09T03:13:55;4.32;;;1.60;;
18857;SDS011;9558;50.178;8.370;2023-07-09T03:16:43;4.60;;;2.03;;
18857;SDS011;9558;50.178;8.370;2023-07-09T03:19:31;3.10;;;1.83;;
18857;SDS011;9558;50.178;8.370;2023-07-09T03:22:18;2.38;;;1.50;;
18857;SDS011;9558;50.178;8.370;2023-07-09T03:25:05;3.08;;;1.60;;
18857;SDS011;9558;50.178;8.370;2023-07-09T03:27:52;4.30;;;1.90;;
18857;SDS011;9558;50.178;8.370;2023-07-09T03:30:39;7.13;;;1.77;;
18857;SDS011;9558;50.178;8.370;2023-07-09T03:33:27;2.88;;;1.90;;
18857;SDS011;9558;50.178;8.370;2023-07-09T03:36:15;2.90;;;1.60;;
18857;SDS011;9558;50.178;8.370;2023-07-09T03:39:02;4.70;;;1.92;;
18857;SDS011;9558;50.178;8.370;2023-07-09T03:41:49;3.17;;;1.67;;
18857;SDS011;9558;50.178;8.370;2023-07-09T03:44:36;2.30;;;1.48;;
18857;SDS011;9558;50.178;8.370;2023-07-09T03:47:23;4.45;;;1.63;;
18857;SDS011;9558;50.178;8.370;2023-07-09T03:50:09;2.53;;;1.50;;
18857;SDS011;9558;50.178;8.370;2023-07-09T03:52:58;6.22;;;1.63;;
18857;SDS011;9558;50.178;8.370;2023-07-09T03:55:45;4.05;;;1.95;;
18857;SDS011;9558;50.178;8.370;2023-07-09T03:58:33;2.53;;;1.50;;
18857;SDS011;9558;50.178;8.370;2023-07-09T04:01:19;3.05;;;1.70;;
18857;SDS011;9558;50.178;8.370;2023-07-09T04:04:07;2.97;;;1.70;;
18857;SDS011;9558;50.178;8.370;2023-07-09T04:06:54;1.88;;;1.60;;
18857;SDS011;9558;50.178;8.370;2023-07-09T04:09:42;3.10;;;1.75;;
18857;SDS011;9558;50.178;8.370;2023-07-09T04:12:29;3.47;;;1.48;;
18857;SDS011;9558;50.178;8.370;2023-07-09T04:15:16;5.07;;;1.70;;
18857;SDS011;9558;50.178;8.370;2023-07-09T04:18:03;2.83;;;1.20;;
18857;SDS011;9558;50.178;8.370;2023-07-09T04:20:50;2.63;;;1.88;;
18857;SDS011;9558;50.178;8.370;2023-07-09T04:23:37;2.17;;;1.40;;
18857;SDS011;9558;50.178;8.370;2023-07-09T04:26:26;3.42;;;1.65;;
18857;SDS011;9558;50.178;8.370;2023-07-09T04:29:13;3.35;;;2.10;;
18857;SDS011;9558;50.178;8.370;2023-07-09T04:31:59;3.13;;;1.80;;
18857;SDS011;9558;50.178;8.370;2023-07-09T04:34:46;3.20;;;1.80;;
18857;SDS011;9558;50.178;8.370;2023-07-09T04:37:34;4.05;;;1.80;;
18857;SDS011;9558;50.178;8.370;2023-07-09T04:40:21;3.22;;;1.45;;
18857;SDS011;9558;50.178;8.370;2023-07-09T04:43:10;4.38;;;1.65;;
18857;SDS011;9558;50.178;8.370;2023-07-09T04:45:56;2.38;;;1.75;;
18857;SDS011;9558;50.178;8.370;2023-07-09T04:48:43;2.17;;;1.73;;
18857;SDS011;9558;50.178;8.370;2023-07-09T04:51:30;3.08;;;1.70;;
18857;SDS011;9558;50.178;8.370;2023-07-09T04:54:17;3.78;;;1.80;;
18857;SDS011;9558;50.178;8.370;2023-07-09T04:57:04;2.92;;;1.65;;
18857;SDS011;9558;50.178;8.370;2023-07-09T04:59:53;2.05;;;1.75;;
18857;SDS011;9558;50.178;8.370;2023-07-09T05:02:40;3.58;;;1.85;;
18857;SDS011;9558;50.178;8.370;2023-07-09T05:05:26;3.97;;;1.70;;
18857;SDS011;9558;50.178;8.370;2023-07-09T05:08:13;2.80;;;1.80;;
18857;SDS011;9558;50.178;8.370;2023-07-09T05:11:00;3.33;;;1.75;;
18857;SDS011;9558;50.178;8.370;2023-07-09T05:13:47;2.60;;;1.58;;
18857;SDS011;9558;50.178;8.370;2023-07-09T05:16:35;2.67;;;1.60;;
18857;SDS011;9558;50.178;8.370;2023-07-09T05:19:22;3.47;;;1.83;;
18857;SDS011;9558;50.178;8.370;2023-07-09T05:22:09;3.83;;;1.90;;
18857;SDS011;9558;50.178;8.370;2023-07-09T05:24:55;2.83;;;1.58;;
18857;SDS011;9558;50.178;8.370;2023-07-09T05:27:42;4.15;;;2.10;;
18857;SDS011;9558;50.178;8.370;2023-07-09T05:30:29;3.45;;;2.08;;
18857;SDS011;9558;50.178;8.370;2023-07-09T05:33:18;4.00;;;1.65;;
18857;SDS011;9558;50.178;8.370;2023-07-09T05:36:05;3.55;;;1.75;;
18857;SDS011;9558;50.178;8.370;2023-07-09T05:38:52;2.20;;;1.65;;
18857;SDS011;9558;50.178;8.370;2023-07-09T05:41:39;3.67;;;1.80;;
18857;SDS011;9558;50.178;8.370;2023-07-09T05:44:26;3.70;;;1.67;;
18857;SDS011;9558;50.178;8.370;2023-07-09T05:47:13;4.97;;;2.05;;
18857;SDS011;9558;50.178;8.370;2023-07-09T05:50:01;6.32;;;2.05;;
18857;SDS011;9558;50.178;8.370;2023-07-09T05:52:49;2.67;;;1.70;;
18857;SDS011;9558;50.178;8.370;2023-07-09T05:55:36;1.80;;;1.58;;
18857;SDS011;9558;50.178;8.370;2023-07-09T05:58:23;2.45;;;1.52;;
18857;SDS011;9558;50.178;8.370;2023-07-09T06:01:10;2.47;;;1.65;;
18857;SDS011;9558;50.178;8.370;2023-07-09T06:03:57;1.88;;;1.50;;
18857;SDS011;9558;50.178;8.370;2023-07-09T06:06:45;2.10;;;1.83;;
18857;SDS011;9558;50.178;8.370;2023-07-09T06:09:32;2.53;;;1.70;;
18857;SDS011;9558;50.178;8.370;2023-07-09T06:12:20;3.70;;;1.73;;
18857;SDS011;9558;50.178;8.370;2023-07-09T06:15:07;3.60;;;1.90;;
18857;SDS011;9558;50.178;8.370;2023-07-09T06:17:54;3.65;;;1.80;;
18857;SDS011;9558;50.178;8.370;2023-07-09T06:20:41;4.65;;;2.13;;
18857;SDS011;9558;50.178;8.370;2023-07-09T06:23:34;4.18;;;1.73;;
18857;SDS011;9558;50.178;8.370;2023-07-09T06:26:21;2.38;;;1.50;;
18857;SDS011;9558;50.178;8.370;2023-07-09T06:29:08;4.60;;;1.90;;
18857;SDS011;9558;50.178;8.370;2023-07-09T06:31:55;2.85;;;1.67;;
18857;SDS011;9558;50.178;8.370;2023-07-09T06:34:41;2.17;;;1.52;;
18857;SDS011;9558;50.178;8.370;2023-07-09T06:37:28;2.72;;;1.48;;
18857;SDS011;9558;50.178;8.370;2023-07-09T06:40:16;2.22;;;1.58;;
18857;SDS011;9558;50.178;8.370;2023-07-09T06:43:03;2.67;;;1.45;;
18857;SDS011;9558;50.178;8.370;2023-07-09T06:45:51;2.80;;;1.60;;
18857;SDS011;9558;50.178;8.370;2023-07-09T06:48:38;2.35;;;1.42;;
18857;SDS011;9558;50.178;8.370;2023-07-09T06:51:25;3.53;;;1.70;;
18857;SDS011;9558;50.178;8.370;2023-07-09T06:54:12;2.90;;;1.40;;
18857;SDS011;9558;50.178;8.370;2023-07-09T06:57:02;5.90;;;1.75;;
18857;SDS011;9558;50.178;8.370;2023-07-09T06:59:49;1.85;;;1.20;;
18857;SDS011;9558;50.178;8.370;2023-07-09T07:02:36;4.30;;;1.60;;
18857;SDS011;9558;50.178;8.370;2023-07-09T07:05:23;3.03;;;1.85;;
18857;SDS011;9558;50.178;8.370;2023-07-09T07:08:09;3.85;;;1.80;;
18857;SDS011;9558;50.178;8.370;2023-07-09T07:10:57;4.13;;;1.65;;
18857;SDS011;9558;50.178;8.370;2023-07-09T07:13:49;2.38;;;1.60;;
18857;SDS011;9558;50.178;8.370;2023-07-09T07:16:36;3.70;;;1.75;;
18857;SDS011;9558;50.178;8.370;2023-07-09T07:19:23;5.15;;;1.70;;
18857;SDS011;9558;50.178;8.370;2023-07-09T07:22:11;1.98;;;1.58;;
18857;SDS011;9558;50.178;8.370;2023-07-09T07:24:58;2.72;;;1.58;;
18857;SDS011;9558;50.178;8.370;2023-07-09T07:27:45;2.22;;;1.80;;
18857;SDS011;9558;50.178;8.370;2023-07-09T07:30:33;2.63;;;2.00;;
18857;SDS011;9558;50.178;8.370;2023-07-09T07:33:20;2.78;;;1.98;;
18857;SDS011;9558;50.178;8.370;2023-07-09T07:36:07;2.83;;;2.00;;
18857;SDS011;9558;50.178;8.370;2023-07-09T07:38:54;2.90;;;1.98;;
18857;SDS011;9558;50.178;8.370;2023-07-09T07:41:41;2.25;;;1.95;;
18857;SDS011;9558;50.178;8.370;2023-07-09T07:44:28;2.38;;;1.70;;
18857;SDS011;9558;50.178;8.370;2023-07-09T07:47:16;4.18;;;2.05;;
18857;SDS011;9558;50.178;8.370;2023-07-09T07:50:03;2.88;;;1.90;;
18857;SDS011;9558;50.178;8.370;2023-07-09T07:52:51;2.78;;;2.30;;
18857;SDS011;9558;50.178;8.370;2023-07-09T07:55:38;3.85;;;2.00;;
18857;SDS011;9558;50.178;8.370;2023-07-09T07:58:24;4.03;;;2.40;;
18857;SDS011;9558;50.178;8.370;2023-07-09T08:01:11;2.58;;;1.88;;
18857;SDS011;9558;50.178;8.370;2023-07-09T08:03:59;3.53;;;2.20;;
18857;SDS011;9558;50.178;8.370;2023-07-09T08:06:46;5.13;;;2.20;;
18857;SDS011;9558;50.178;8.370;2023-07-09T08:09:33;2.38;;;1.90;;
18857;SDS011;9558;50.178;8.370;2023-07-09T08:12:20;3.10;;;1.80;;
18857;SDS011;9558;50.178;8.370;2023-07-09T08:15:07;2.72;;;1.80;;
18857;SDS011;9558;50.178;8.370;2023-07-09T08:17:54;3.13;;;1.73;;
18857;SDS011;9558;50.178;8.370;2023-07-09T08:20:44;3.65;;;2.08;;
18857;SDS011;9558;50.178;8.370;2023-07-09T08:23:31;6.07;;;2.30;;
18857;SDS011;9558;50.178;8.370;2023-07-09T08:26:18;3.80;;;2.17;;
18857;SDS011;9558;50.178;8.370;2023-07-09T08:29:04;5.65;;;2.47;;
18857;SDS011;9558;50.178;8.370;2023-07-09T08:31:51;3.83;;;2.10;;
18857;SDS011;9558;50.178;8.370;2023-07-09T08:34:38;2.97;;;2.65;;
18857;SDS011;9558;50.178;8.370;2023-07-09T08:37:28;4.18;;;2.33;;
18857;SDS011;9558;50.178;8.370;2023-07-09T08:40:15;4.85;;;2.28;;
18857;SDS011;9558;50.178;8.370;2023-07-09T08:43:06;3.10;;;2.33;;
18857;SDS011;9558;50.178;8.370;2023-07-09T08:46:02;5.45;;;2.83;;
18857;SDS011;9558;50.178;8.370;2023-07-09T08:48:55;3.05;;;2.38;;
18857;SDS011;9558;50.178;8.370;2023-07-09T08:51:44;3.00;;;2.22;;
18857;SDS011;9558;50.178;8.370;2023-07-09T08:54:34;5.47;;;2.67;;
18857;SDS011;9558;50.178;8.370;2023-07-09T08:57:24;3.65;;;2.60;;
18857;SDS011;9558;50.178;8.370;2023-07-09T09:00:14;4.63;;;2.53;;
18857;SDS011;9558;50.178;8.370;2023-07-09T09:03:05;4.55;;;2.70;;
18857;SDS011;9558;50.178;8.370;2023-07-09T09:05:57;3.40;;;2.08;;
18857;SDS011;9558;50.178;8.370;2023-07-09T09:08:46;2.75;;;2.20;;
18857;SDS011;9558;50.178;8.370;2023-07-09T09:11:43;4.43;;;2.67;;
18857;SDS011;9558;50.178;8.370;2023-07-09T09:14:31;2.90;;;2.40;;
18857;SDS011;9558;50.178;8.370;2023-07-09T09:17:20;3.25;;;2.47;;
18857;SDS011;9558;50.178;8.370;2023-07-09T09:20:08;4.93;;;2.85;;
18857;SDS011;9558;50.178;8.370;2023-07-09T09:23:00;4.00;;;2.53;;
18857;SDS011;9558;50.178;8.370;2023-07-09T09:25:59;2.88;;;2.58;;
18857;SDS011;9558;50.178;8.370;2023-07-09T09:28:49;4.10;;;2.30;;
18857;SDS011;9558;50.178;8.370;2023-07-09T09:31:37;3.25;;;2.50;;
18857;SDS011;9558;50.178;8.370;2023-07-09T09:34:25;3.75;;;2.40;;
18857;SDS011;9558;50.178;8.370;2023-07-09T09:37:15;3.00;;;2.50;;
18857;SDS011;9558;50.178;8.370;2023-07-09T09:40:12;4.90;;;2.42;;
18857;SDS011;9558;50.178;8.370;2023-07-09T09:42:58;3.13;;;2.30;;
18857;SDS011;9558;50.178;8.370;2023-07-09T09:45:48;4.15;;;2.70;;
18857;SDS011;9558;50.178;8.370;2023-07-09T09:48:36;4.78;;;2.60;;
18857;SDS011;9558;50.178;8.370;2023-07-09T09:51:24;2.65;;;2.35;;
18857;SDS011;9558;50.178;8.370;2023-07-09T09:54:13;4.07;;;2.80;;
18857;SDS011;9558;50.178;8.370;2023-07-09T09:57:04;5.10;;;2.60;;
18857;SDS011;9558;50.178;8.370;2023-07-09T10:00:01;4.35;;;2.50;;
18857;SDS011;9558;50.178;8.370;2023-07-09T10:02:57;5.38;;;2.60;;
18857;SDS011;9558;50.178;8.370;2023-07-09T10:05:47;4.10;;;2.42;;
18857;SDS011;9558;50.178;8.370;2023-07-09T10:08:40;5.55;;;2.63;;
18857;SDS011;9558;50.178;8.370;2023-07-09T10:11:39;4.32;;;2.60;;
18857;SDS011;9558;50.178;8.370;2023-07-09T10:14:33;4.85;;;2.33;;
18857;SDS011;9558;50.178;8.370;2023-07-09T10:17:35;3.65;;;2.35;;
18857;SDS011;9558;50.178;8.370;2023-07-09T10:20:27;3.13;;;2.33;;
18857;SDS011;9558;50.178;8.370;2023-07-09T10:23:21;3.13;;;2.40;;
18857;SDS011;9558;50.178;8.370;2023-07-09T10:26:16;4.65;;;2.10;;
18857;SDS011;9558;50.178;8.370;2023-07-09T10:32:37;3.38;;;2.30;;
18857;SDS011;9558;50.178;8.370;2023-07-09T10:35:37;3.30;;;2.38;;
18857;SDS011;9558;50.178;8.370;2023-07-09T10:38:31;5.63;;;2.15;;
18857;SDS011;9558;50.178;8.370;2023-07-09T10:41:28;3.42;;;2.53;;
18857;SDS011;9558;50.178;8.370;2023-07-09T10:44:17;4.10;;;2.45;;
18857;SDS011;9558;50.178;8.370;2023-07-09T10:47:09;3.33;;;2.20;;
18857;SDS011;9558;50.178;8.370;2023-07-09T10:50:09;3.38;;;2.25;;
18857;SDS011;9558;50.178;8.370;2023-07-09T10:53:04;3.47;;;2.30;;
18857;SDS011;9558;50.178;8.370;2023-07-09T10:55:58;5.28;;;2.40;;
18857;SDS011;9558;50.178;8.370;2023-07-09T10:58:50;6.72;;;2.42;;
18857;SDS011;9558;50.178;8.370;2023-07-09T11:01:55;4.38;;;2.22;;
18857;SDS011;9558;50.178;8.370;2023-07-09T11:04:46;6.90;;;2.63;;
18857;SDS011;9558;50.178;8.370;2023-07-09T11:07:48;3.80;;;3.05;;
18857;SDS011;9558;50.178;8.370;2023-07-09T11:10:46;3.95;;;2.38;;
18857;SDS011;9558;50.178;8.370;2023-07-09T11:13:39;4.88;;;2.38;;
18857;SDS011;9558;50.178;8.370;2023-07-09T11:16:29;3.40;;;2.75;;
18857;SDS011;9558;50.178;8.370;2023-07-09T11:19:18;3.95;;;2.25;;
18857;SDS011;9558;50.178;8.370;2023-07-09T11:22:14;4.40;;;2.47;;
18857;SDS011;9558;50.178;8.370;2023-07-09T11:25:05;4.57;;;2.38;;
18857;SDS011;9558;50.178;8.370;2023-07-09T11:28:02;3.30;;;2.33;;
18857;SDS011;9558;50.178;8.370;2023-07-09T11:30:51;5.05;;;1.98;;
18857;SDS011;9558;50.178;8.370;2023-07-09T11:33:45;4.35;;;2.05;;
18857;SDS011;9558;50.178;8.370;2023-07-09T11:36:34;3.97;;;2.05;;
18857;SDS011;9558;50.178;8.370;2023-07-09T11:39:41;3.60;;;2.00;;
18857;SDS011;9558;50.178;8.370;2023-07-09T11:42:32;2.50;;;2.03;;
18857;SDS011;9558;50.178;8.370;2023-07-09T11:45:22;2.95;;;2.25;;
18857;SDS011;9558;50.178;8.370;2023-07-09T11:48:15;3.63;;;2.30;;
18857;SDS011;9558;50.178;8.370;2023-07-09T11:51:10;4.05;;;2.15;;
18857;SDS011;9558;50.178;8.370;2023-07-09T11:54:03;4.03;;;2.33;;
18857;SDS011;9558;50.178;8.370;2023-07-09T11:56:54;4.07;;;2.08;;
18857;SDS011;9558;50.178;8.370;2023-07-09T11:59:42;3.22;;;2.40;;
18857;SDS011;9558;50.178;8.370;2023-07-09T12:02:32;3.47;;;2.42;;
18857;SDS011;9558;50.178;8.370;2023-07-09T12:05:21;4.00;;;2.47;;
18857;SDS011;9558;50.178;8.370;2023-07-09T12:08:12;3.33;;;2.17;;
18857;SDS011;9558;50.178;8.370;2023-07-09T12:11:01;6.25;;;2.78;;
18857;SDS011;9558;50.178;8.370;2023-07-09T12:13:49;4.03;;;2.65;;
18857;SDS011;9558;50.178;8.370;2023-07-09T12:16:37;4.68;;;2.20;;
18857;SDS011;9558;50.178;8.370;2023-07-09T12:19:29;3.15;;;2.25;;
18857;SDS011;9558;50.178;8.370;2023-07-09T12:22:19;4.80;;;2.28;;
18857;SDS011;9558;50.178;8.370;2023-07-09T12:25:11;2.60;;;1.80;;
18857;SDS011;9558;50.178;8.370;2023-07-09T12:28:12;2.70;;;1.70;;
18857;SDS011;9558;50.178;8.370;2023-07-09T12:31:00;3.40;;;2.30;;
18857;SDS011;9558;50.178;8.370;2023-07-09T12:33:48;4.00;;;2.33;;
18857;SDS011;9558;50.178;8.370;2023-07-09T12:36:37;3.13;;;2.17;;
18857;SDS011;9558;50.178;8.370;2023-07-09T12:39:29;3.10;;;2.15;;
18857;SDS011;9558;50.178;8.370;2023-07-09T12:42:18;4.10;;;1.95;;
18857;SDS011;9558;50.178;8.370;2023-07-09T12:45:08;5.75;;;2.22;;
18857;SDS011;9558;50.178;8.370;2023-07-09T12:48:00;5.07;;;2.10;;
18857;SDS011;9558;50.178;8.370;2023-07-09T12:50:48;4.50;;;2.00;;
18857;SDS011;9558;50.178;8.370;2023-07-09T12:53:37;2.55;;;2.00;;
18857;SDS011;9558;50.178;8.370;2023-07-09T12:56:25;4.57;;;1.98;;
18857;SDS011;9558;50.178;8.370;2023-07-09T12:59:16;4.43;;;2.55;;
18857;SDS011;9558;50.178;8.370;2023-07-09T13:02:06;3.90;;;2.03;;
18857;SDS011;9558;50.178;8.370;2023-07-09T13:05:02;5.82;;;2.20;;
18857;SDS011;9558;50.178;8.370;2023-07-09T13:07:52;2.50;;;1.70;;
18857;SDS011;9558;50.178;8.370;2023-07-09T13:10:41;3.00;;;1.90;;
18857;SDS011;9558;50.178;8.370;2023-07-09T13:13:28;3.97;;;2.20;;
18857;SDS011;9558;50.178;8.370;2023-07-09T13:16:14;5.95;;;1.95;;
18857;SDS011;9558;50.178;8.370;2023-07-09T13:19:01;5.13;;;2.03;;
18857;SDS011;9558;50.178;8.370;2023-07-09T13:21:48;3.88;;;2.08;;
18857;SDS011;9558;50.178;8.370;2023-07-09T13:24:35;3.17;;;2.25;;
18857;SDS011;9558;50.178;8.370;2023-07-09T13:27:23;5.95;;;2.35;;
18857;SDS011;9558;50.178;8.370;2023-07-09T13:30:11;3.70;;;2.05;;
18857;SDS011;9558;50.178;8.370;2023-07-09T13:32:58;3.97;;;2.42;;
18857;SDS011;9558;50.178;8.370;2023-07-09T13:35:45;3.88;;;1.90;;
18857;SDS011;9558;50.178;8.370;2023-07-09T13:38:33;5.10;;;2.28;;
18857;SDS011;9558;50.178;8.370;2023-07-09T13:41:20;2.80;;;2.10;;
18857;SDS011;9558;50.178;8.370;2023-07-09T13:44:11;4.07;;;2.28;;
18857;SDS011;9558;50.178;8.370;2023-07-09T13:46:59;4.35;;;2.40;;
18857;SDS011;9558;50.178;8.370;2023-07-09T13:49:46;5.85;;;2.13;;
18857;SDS011;9558;50.178;8.370;2023-07-09T13:52:33;4.20;;;2.10;;
18857;SDS011;9558;50.178;8.370;2023-07-09T13:55:22;3.70;;;2.53;;
18857;SDS011;9558;50.178;8.370;2023-07-09T13:58:09;4.40;;;2.40;;
18857;SDS011;9558;50.178;8.370;2023-07-09T14:00:59;5.53;;;2.03;;
18857;SDS011;9558;50.178;8.370;2023-07-09T14:03:52;3.90;;;1.98;;
18857;SDS011;9558;50.178;8.370;2023-07-09T14:06:44;2.45;;;2.10;;
18857;SDS011;9558;50.178;8.370;2023-07-09T14:09:31;3.05;;;1.77;;
18857;SDS011;9558;50.178;8.370;2023-07-09T14:12:19;4.35;;;2.13;;
18857;SDS011;9558;50.178;8.370;2023-07-09T14:15:09;2.85;;;1.98;;
18857;SDS011;9558;50.178;8.370;2023-07-09T14:18:01;5.20;;;2.08;;
18857;SDS011;9558;50.178;8.370;2023-07-09T14:20:48;4.78;;;2.03;;
18857;SDS011;9558;50.178;8.370;2023-07-09T14:23:36;4.65;;;2.17;;
18857;SDS011;9558;50.178;8.370;2023-07-09T14:26:23;2.95;;;2.00;;
18857;SDS011;9558;50.178;8.370;2023-07-09T14:29:10;2.67;;;2.03;;
18857;SDS011;9558;50.178;8.370;2023-07-09T14:31:59;2.65;;;2.03;;
18857;SDS011;9558;50.178;8.370;2023-07-09T14:34:47;5.18;;;2.00;;
18857;SDS011;9558;50.178;8.370;2023-07-09T14:37:34;4.53;;;2.33;;
18857;SDS011;9558;50.178;8.370;2023-07-09T14:40:21;3.13;;;2.50;;
18857;SDS011;9558;50.178;8.370;2023-07-09T14:43:09;3.22;;;2.15;;
18857;SDS011;9558;50.178;8.370;2023-07-09T14:45:56;3.50;;;2.38;;
18857;SDS011;9558;50.178;8.370;2023-07-09T14:48:43;3.78;;;2.35;;
18857;SDS011;9558;50.178;8.370;2023-07-09T14:51:31;4.13;;;2.50;;
18857;SDS011;9558;50.178;8.370;2023-07-09T14:54:18;4.10;;;2.55;;
18857;SDS011;9558;50.178;8.370;2023-07-09T14:57:08;2.03;;;1.70;;
18857;SDS011;9558;50.178;8.370;2023-07-09T15:00:03;4.88;;;2.15;;
18857;SDS011;9558;50.178;8.370;2023-07-09T15:02:52;3.92;;;2.00;;
18857;SDS011;9558;50.178;8.370;2023-07-09T15:05:40;4.93;;;2.53;;
18857;SDS011;9558;50.178;8.370;2023-07-09T15:08:28;4.22;;;2.22;;
18857;SDS011;9558;50.178;8.370;2023-07-09T15:11:14;3.55;;;2.47;;
18857;SDS011;9558;50.178;8.370;2023-07-09T15:14:01;4.45;;;2.10;;
18857;SDS011;9558;50.178;8.370;2023-07-09T15:16:48;3.15;;;2.15;;
18857;SDS011;9558;50.178;8.370;2023-07-09T15:19:35;5.63;;;2.00;;
18857;SDS011;9558;50.178;8.370;2023-07-09T15:22:26;3.72;;;2.25;;
18857;SDS011;9558;50.178;8.370;2023-07-09T15:25:18;4.57;;;2.17;;
18857;SDS011;9558;50.178;8.370;2023-07-09T15:28:08;2.83;;;2.15;;
18857;SDS011;9558;50.178;8.370;2023-07-09T15:30:56;2.55;;;1.83;;
18857;SDS011;9558;50.178;8.370;2023-07-09T15:33:43;5.07;;;2.65;;
18857;SDS011;9558;50.178;8.370;2023-07-09T15:36:31;3.22;;;2.08;;
18857;SDS011;9558;50.178;8.370;2023-07-09T15:39:18;2.08;;;1.88;;
18857;SDS011;9558;50.178;8.370;2023-07-09T15:42:10;6.75;;;2.10;;
18857;SDS011;9558;50.178;8.370;2023-07-09T15:47:44;3.28;;;1.92;;
18857;SDS011;9558;50.178;8.370;2023-07-09T15:50:31;3.70;;;1.70;;
18857;SDS011;9558;50.178;8.370;2023-07-09T15:53:21;6.22;;;1.98;;
18857;SDS011;9558;50.178;8.370;2023-07-09T15:56:11;3.70;;;1.92;;
18857;SDS011;9558;50.178;8.370;2023-07-09T15:59:16;2.70;;;2.20;;
18857;SDS011;9558;50.178;8.370;2023-07-09T16:02:12;3.97;;;2.00;;
18857;SDS011;9558;50.178;8.370;2023-07-09T16:05:00;4.03;;;2.10;;
18857;SDS011;9558;50.178;8.370;2023-07-09T16:07:47;3.50;;;1.88;;
18857;SDS011;9558;50.178;8.370;2023-07-09T16:10:34;3.53;;;2.03;;
18857;SDS011;9558;50.178;8.370;2023-07-09T16:13:22;6.07;;;2.40;;
18857;SDS011;9558;50.178;8.370;2023-07-09T16:16:13;6.10;;;2.25;;
18857;SDS011;9558;50.178;8.370;2023-07-09T16:19:01;3.42;;;1.80;;
18857;SDS011;9558;50.178;8.370;2023-07-09T16:21:48;4.25;;;1.88;;
18857;SDS011;9558;50.178;8.370;2023-07-09T16:24:37;5.78;;;2.70;;
18857;SDS011;9558;50.178;8.370;2023-07-09T16:27:23;3.63;;;2.30;;
18857;SDS011;9558;50.178;8.370;2023-07-09T16:30:15;2.80;;;2.00;;
18857;SDS011;9558;50.178;8.370;2023-07-09T16:33:04;4.85;;;2.58;;
18857;SDS011;9558;50.178;8.370;2023-07-09T16:35:51;3.92;;;2.28;;
18857;SDS011;9558;50.178;8.370;2023-07-09T16:38:39;3.38;;;1.98;;
18857;SDS011;9558;50.178;8.370;2023-07-09T16:41:26;5.32;;;2.47;;
18857;SDS011;9558;50.178;8.370;2023-07-09T16:44:13;3.50;;;2.25;;
18857;SDS011;9558;50.178;8.370;2023-07-09T16:47:00;3.65;;;2.17;;
18857;SDS011;9558;50.178;8.370;2023-07-09T16:49:48;2.63;;;1.92;;
18857;SDS011;9558;50.178;8.370;2023-07-09T16:52:35;3.75;;;2.13;;
18857;SDS011;9558;50.178;8.370;2023-07-09T16:55:22;8.50;;;2.30;;
18857;SDS011;9558;50.178;8.370;2023-07-09T16:58:16;3.90;;;1.80;;
18857;SDS011;9558;50.178;8.370;2023-07-09T17:01:05;3.17;;;2.00;;
18857;SDS011;9558;50.178;8.370;2023-07-09T17:03:53;5.22;;;2.10;;
18857;SDS011;9558;50.178;8.370;2023-07-09T17:06:42;4.22;;;2.00;;
18857;SDS011;9558;50.178;8.370;2023-07-09T17:09:29;5.53;;;2.08;;
18857;SDS011;9558;50.178;8.370;2023-07-09T17:12:16;4.20;;;2.10;;
18857;SDS011;9558;50.178;8.370;2023-07-09T17:15:06;5.55;;;2.00;;
18857;SDS011;9558;50.178;8.370;2023-07-09T17:18:10;5.57;;;1.90;;
18857;SDS011;9558;50.178;8.370;2023-07-09T17:21:03;7.03;;;2.35;;